Time,TemperatureF,DewpointF,PressureIn,WindDirection,WindDirectionDegrees,WindSpeedMPH,WindSpeedGustMPH,Humidity,HourlyPrecipIn,Conditions,Clouds,dailyrainin,SoftwareType,DateUTC
2013-10-12 02:42:00,45.0,40.0,30.45,WSW,247,3.0,10.0,81,-99.99,,,0.00,,2013-10-12 06:42:00,
2013-10-12 02:52:00,45.0,40.0,30.45,WSW,247,3.0,10.0,81,-99.99,,,0.00,,2013-10-12 06:52:00,
2013-10-12 03:03:00,45.0,40.0,30.45,WSW,247,3.0,10.0,81,-99.99,,,0.00,,2013-10-12 07:03:00,
2013-10-12 03:52:00,46.0,42.0,30.44,West,270,3.0,9.0,87,-99.99,,,0.00,,2013-10-12 07:52:00,
2013-10-12 04:02:00,46.0,42.0,30.44,West,270,3.0,9.0,87,-99.99,,,0.00,,2013-10-12 08:02:00,
2013-10-12 04:43:00,47.0,39.0,30.46,WNW,292,4.0,7.0,74,-99.99,,,0.00,,2013-10-12 08:43:00,
2013-10-12 04:52:00,47.0,39.0,30.46,WNW,292,4.0,7.0,74,-99.99,,,0.00,,2013-10-12 08:52:00,
2013-10-12 05:02:00,47.0,39.0,30.46,WNW,292,4.0,7.0,74,-99.99,,,0.00,,2013-10-12 09:02:00,
2013-10-12 05:54:00,47.0,37.0,30.48,West,270,2.0,7.0,67,-99.99,,,0.00,,2013-10-12 09:54:00,
2013-10-12 06:03:00,47.0,37.0,30.48,West,270,2.0,7.0,67,-99.99,,,0.00,,2013-10-12 10:03:00,
2013-10-12 06:53:00,47.0,38.0,30.49,WSW,247,1.0,6.0,72,-99.99,,,0.00,,2013-10-12 10:53:00,
2013-10-12 07:02:00,47.0,38.0,30.49,WSW,247,1.0,6.0,72,-99.99,,,0.00,,2013-10-12 11:02:00,
2013-10-12 07:43:00,47.0,36.0,30.50,WSW,247,0.0,4.0,66,-99.99,,,0.00,,2013-10-12 11:43:00,
2013-10-12 07:52:00,47.0,36.0,30.50,WSW,247,0.0,4.0,66,-99.99,,,0.00,,2013-10-12 11:52:00,
2013-10-12 08:01:00,47.0,36.0,30.50,WSW,247,0.0,4.0,66,-99.99,,,0.00,,2013-10-12 12:01:00,
2013-10-12 08:42:00,48.0,38.0,30.51,NW,315,3.0,5.0,67,-99.99,,,0.00,,2013-10-12 12:42:00,
2013-10-12 08:52:00,48.0,38.0,30.51,NW,315,3.0,5.0,67,-99.99,,,0.00,,2013-10-12 12:52:00,
2013-10-12 09:02:00,48.0,38.0,30.51,NW,315,3.0,5.0,67,-99.99,,,0.00,,2013-10-12 13:02:00,
2013-10-12 12:43:00,54.0,40.0,30.54,NE,45,5.0,8.0,59,-99.99,,,0.00,,2013-10-12 16:43:00,
2013-10-12 12:53:00,54.0,40.0,30.54,NE,45,5.0,8.0,59,-99.99,,,0.00,,2013-10-12 16:53:00,
2013-10-12 13:03:00,54.0,40.0,30.54,NE,45,5.0,8.0,59,-99.99,,,0.00,,2013-10-12 17:03:00,
2013-10-12 13:42:00,57.0,50.0,30.47,NE,45,5.0,13.0,76,-99.99,,,0.00,,2013-10-12 17:42:00,
2013-10-12 13:54:00,57.0,50.0,30.47,NE,45,5.0,13.0,76,-99.99,,,0.00,,2013-10-12 17:54:00,
2013-10-12 14:03:00,57.0,50.0,30.47,NE,45,5.0,13.0,76,-99.99,,,0.00,,2013-10-12 18:03:00,
2013-10-12 14:42:00,56.0,50.0,30.51,SW,225,4.0,8.0,79,-99.99,,,0.00,,2013-10-12 18:42:00,
2013-10-12 14:52:00,56.0,50.0,30.51,SW,225,4.0,8.0,79,-99.99,,,0.00,,2013-10-12 18:52:00,
2013-10-12 15:01:00,56.0,50.0,30.51,SW,225,4.0,8.0,79,-99.99,,,0.00,,2013-10-12 19:01:00,
2013-10-12 15:42:00,60.0,47.0,30.43,SSE,157,4.0,7.0,63,-99.99,,,0.00,,2013-10-12 19:42:00,
2013-10-12 15:52:00,60.0,47.0,30.43,SSE,157,4.0,7.0,63,-99.99,,,0.00,,2013-10-12 19:52:00,
2013-10-12 16:03:00,60.0,47.0,30.43,SSE,157,4.0,7.0,63,-99.99,,,0.00,,2013-10-12 20:03:00,
2013-10-12 16:52:00,57.0,50.0,30.41,SE,135,9.0,10.0,78,-99.99,,,0.00,,2013-10-12 20:52:00,
2013-10-12 17:02:00,57.0,50.0,30.41,SE,135,9.0,10.0,78,-99.99,,,0.00,,2013-10-12 21:02:00,
2013-10-12 17:04:00,56.0,50.0,30.44,South,180,3.0,10.0,79,-99.99,,,0.00,,2013-10-12 21:04:00,
2013-10-12 17:43:00,56.0,50.0,30.44,South,180,3.0,10.0,79,-99.99,,,0.00,,2013-10-12 21:43:00,
2013-10-12 17:54:00,56.0,50.0,30.44,South,180,3.0,10.0,79,-99.99,,,0.00,,2013-10-12 21:54:00,
2013-10-12 18:54:00,52.0,36.0,30.44,SE,135,6.0,7.0,54,-99.99,,,0.00,,2013-10-12 22:54:00,
2013-10-12 19:03:00,52.0,36.0,30.44,SE,135,6.0,7.0,54,-99.99,,,0.00,,2013-10-12 23:03:00,
2013-10-12 22:52:00,40.0,38.0,30.49,ESE,112,0.0,4.0,93,-99.99,,,0.00,,2013-10-13 02:52:00,
2013-10-12 23:03:00,40.0,38.0,30.49,ESE,112,0.0,4.0,93,-99.99,,,0.00,,2013-10-13 03:03:00,
2013-10-12 23:45:00,40.0,36.0,30.51,SSW,202,0.0,3.0,86,-99.99,,,0.00,,2013-10-13 03:45:00,
2013-10-12 23:54:00,40.0,36.0,30.51,SSW,202,0.0,3.0,86,-99.99,,,0.00,,2013-10-13 03:54:00,